sensor_id;sensor_type;location;lat;lon;timestamp;temperature;humidity
40255;DHT22;25973;52.368;4.940;2022-07-19T00:00:00;25.30;96.30
40255;DHT22;25973;52.368;4.940;2022-07-19T00:02:26;25.30;96.50
40255;DHT22;25973;52.368;4.940;2022-07-19T00:04:52;25.30;96.60
40255;DHT22;25973;52.368;4.940;2022-07-19T00:07:18;25.30;96.60
40255;DHT22;25973;52.368;4.940;2022-07-19T00:09:43;25.20;96.70
40255;DHT22;25973;52.368;4.940;2022-07-19T00:12:09;25.20;96.70
40255;DHT22;25973;52.368;4.940;2022-07-19T00:14:38;25.20;96.70
40255;DHT22;25973;52.368;4.940;2022-07-19T00:17:03;25.20;96.50
40255;DHT22;25973;52.368;4.940;2022-07-19T00:19:29;25.20;96.70
40255;DHT22;25973;52.368;4.940;2022-07-19T00:21:54;25.20;96.70
40255;DHT22;25973;52.368;4.940;2022-07-19T00:24:20;25.10;96.30
40255;DHT22;25973;52.368;4.940;2022-07-19T00:26:48;25.10;96.00
40255;DHT22;25973;52.368;4.940;2022-07-19T00:29:14;25.10;96.10
40255;DHT22;25973;52.368;4.940;2022-07-19T00:31:39;25.10;95.80
40255;DHT22;25973;52.368;4.940;2022-07-19T00:34:05;25.00;95.90
40255;DHT22;25973;52.368;4.940;2022-07-19T00:36:30;25.00;96.10
40255;DHT22;25973;52.368;4.940;2022-07-19T00:38:56;25.00;96.30
40255;DHT22;25973;52.368;4.940;2022-07-19T00:41:21;25.00;96.30
40255;DHT22;25973;52.368;4.940;2022-07-19T00:43:47;25.00;96.10
40255;DHT22;25973;52.368;4.940;2022-07-19T00:46:15;25.00;95.60
40255;DHT22;25973;52.368;4.940;2022-07-19T00:48:41;25.00;95.10
40255;DHT22;25973;52.368;4.940;2022-07-19T00:51:12;25.00;95.10
40255;DHT22;25973;52.368;4.940;2022-07-19T00:53:39;25.00;95.20
40255;DHT22;25973;52.368;4.940;2022-07-19T00:56:06;25.00;95.40
40255;DHT22;25973;52.368;4.940;2022-07-19T00:58:33;24.90;95.60
40255;DHT22;25973;52.368;4.940;2022-07-19T01:00:59;25.00;95.90
40255;DHT22;25973;52.368;4.940;2022-07-19T01:03:26;24.90;95.80
40255;DHT22;25973;52.368;4.940;2022-07-19T01:05:52;24.90;95.90
40255;DHT22;25973;52.368;4.940;2022-07-19T01:08:18;24.90;96.10
40255;DHT22;25973;52.368;4.940;2022-07-19T01:10:44;24.90;96.40
40255;DHT22;25973;52.368;4.940;2022-07-19T01:13:12;24.90;96.40
40255;DHT22;25973;52.368;4.940;2022-07-19T01:15:40;24.90;96.40
40255;DHT22;25973;52.368;4.940;2022-07-19T01:18:05;24.80;95.90
40255;DHT22;25973;52.368;4.940;2022-07-19T01:20:31;24.80;95.70
40255;DHT22;25973;52.368;4.940;2022-07-19T01:22:57;24.70;95.60
40255;DHT22;25973;52.368;4.940;2022-07-19T01:25:26;24.70;95.70
40255;DHT22;25973;52.368;4.940;2022-07-19T01:27:52;24.70;95.60
40255;DHT22;25973;52.368;4.940;2022-07-19T01:30:19;24.70;95.90
40255;DHT22;25973;52.368;4.940;2022-07-19T01:32:48;24.60;96.10
40255;DHT22;25973;52.368;4.940;2022-07-19T01:35:14;24.60;96.10
40255;DHT22;25973;52.368;4.940;2022-07-19T01:37:40;24.60;96.20
40255;DHT22;25973;52.368;4.940;2022-07-19T01:40:08;24.50;96.20
40255;DHT22;25973;52.368;4.940;2022-07-19T01:42:34;24.40;95.80
40255;DHT22;25973;52.368;4.940;2022-07-19T01:45:00;24.40;95.90
40255;DHT22;25973;52.368;4.940;2022-07-19T01:47:26;24.40;96.00
40255;DHT22;25973;52.368;4.940;2022-07-19T01:49:51;24.40;96.30
40255;DHT22;25973;52.368;4.940;2022-07-19T01:52:17;24.30;96.40
40255;DHT22;25973;52.368;4.940;2022-07-19T01:54:43;24.30;96.20
40255;DHT22;25973;52.368;4.940;2022-07-19T01:57:08;24.30;96.20
40255;DHT22;25973;52.368;4.940;2022-07-19T01:59:38;24.30;96.20
40255;DHT22;25973;52.368;4.940;2022-07-19T02:02:04;24.30;96.50
40255;DHT22;25973;52.368;4.940;2022-07-19T02:04:30;24.30;96.40
40255;DHT22;25973;52.368;4.940;2022-07-19T02:06:55;24.30;96.60
40255;DHT22;25973;52.368;4.940;2022-07-19T02:09:21;24.20;96.20
40255;DHT22;25973;52.368;4.940;2022-07-19T02:11:47;24.20;96.10
40255;DHT22;25973;52.368;4.940;2022-07-19T02:14:12;24.20;96.20
40255;DHT22;25973;52.368;4.940;2022-07-19T02:16:38;24.20;96.20
40255;DHT22;25973;52.368;4.940;2022-07-19T02:19:06;24.20;96.10
40255;DHT22;25973;52.368;4.940;2022-07-19T02:21:32;24.20;95.70
40255;DHT22;25973;52.368;4.940;2022-07-19T02:23:58;24.20;95.80
40255;DHT22;25973;52.368;4.940;2022-07-19T02:26:23;24.20;95.70
40255;DHT22;25973;52.368;4.940;2022-07-19T02:28:49;24.20;95.80
40255;DHT22;25973;52.368;4.940;2022-07-19T02:31:15;24.10;95.90
40255;DHT22;25973;52.368;4.940;2022-07-19T02:33:40;24.10;96.00
40255;DHT22;25973;52.368;4.940;2022-07-19T02:36:06;24.00;96.00
40255;DHT22;25973;52.368;4.940;2022-07-19T02:38:32;24.00;95.90
40255;DHT22;25973;52.368;4.940;2022-07-19T02:40:58;23.90;95.90
40255;DHT22;25973;52.368;4.940;2022-07-19T02:43:24;23.90;96.10
40255;DHT22;25973;52.368;4.940;2022-07-19T02:45:49;23.90;96.40
40255;DHT22;25973;52.368;4.940;2022-07-19T02:48:15;23.90;96.50
40255;DHT22;25973;52.368;4.940;2022-07-19T02:50:41;23.80;96.60
40255;DHT22;25973;52.368;4.940;2022-07-19T02:53:07;23.80;96.60
40255;DHT22;25973;52.368;4.940;2022-07-19T02:55:32;23.90;96.70
40255;DHT22;25973;52.368;4.940;2022-07-19T02:57:58;23.80;96.50
40255;DHT22;25973;52.368;4.940;2022-07-19T03:00:24;23.80;96.20
40255;DHT22;25973;52.368;4.940;2022-07-19T03:02:49;23.80;95.80
40255;DHT22;25973;52.368;4.940;2022-07-19T03:05:15;23.80;95.80
40255;DHT22;25973;52.368;4.940;2022-07-19T03:07:40;23.80;96.00
40255;DHT22;25973;52.368;4.940;2022-07-19T03:10:07;23.80;96.30
40255;DHT22;25973;52.368;4.940;2022-07-19T03:12:33;23.70;96.30
40255;DHT22;25973;52.368;4.940;2022-07-19T03:14:58;23.70;96.30
40255;DHT22;25973;52.368;4.940;2022-07-19T03:17:24;23.70;96.60
40255;DHT22;25973;52.368;4.940;2022-07-19T03:19:49;23.70;96.70
40255;DHT22;25973;52.368;4.940;2022-07-19T03:22:15;23.70;96.50
40255;DHT22;25973;52.368;4.940;2022-07-19T03:24:40;23.70;96.60
40255;DHT22;25973;52.368;4.940;2022-07-19T03:27:06;23.60;96.70
40255;DHT22;25973;52.368;4.940;2022-07-19T03:29:31;23.60;96.70
40255;DHT22;25973;52.368;4.940;2022-07-19T03:31:57;23.60;96.70
40255;DHT22;25973;52.368;4.940;2022-07-19T03:34:23;23.60;96.50
40255;DHT22;25973;52.368;4.940;2022-07-19T03:36:49;23.50;96.50
40255;DHT22;25973;52.368;4.940;2022-07-19T03:39:14;23.50;96.60
40255;DHT22;25973;52.368;4.940;2022-07-19T03:41:40;23.50;96.90
40255;DHT22;25973;52.368;4.940;2022-07-19T03:44:05;23.50;96.70
40255;DHT22;25973;52.368;4.940;2022-07-19T03:46:31;23.50;96.70
40255;DHT22;25973;52.368;4.940;2022-07-19T03:48:56;23.50;97.20
40255;DHT22;25973;52.368;4.940;2022-07-19T03:51:23;23.50;97.30
40255;DHT22;25973;52.368;4.940;2022-07-19T03:53:49;23.40;97.20
40255;DHT22;25973;52.368;4.940;2022-07-19T03:56:15;23.40;97.10
40255;DHT22;25973;52.368;4.940;2022-07-19T03:58:41;23.40;96.80
40255;DHT22;25973;52.368;4.940;2022-07-19T04:01:06;23.40;96.70
40255;DHT22;25973;52.368;4.940;2022-07-19T04:03:36;23.40;96.80
40255;DHT22;25973;52.368;4.940;2022-07-19T04:06:04;23.40;96.60
40255;DHT22;25973;52.368;4.940;2022-07-19T04:08:29;23.40;96.60
40255;DHT22;25973;52.368;4.940;2022-07-19T04:10:55;23.50;96.70
40255;DHT22;25973;52.368;4.940;2022-07-19T04:13:20;23.50;96.60
40255;DHT22;25973;52.368;4.940;2022-07-19T04:15:46;23.50;96.50
40255;DHT22;25973;52.368;4.940;2022-07-19T04:18:11;23.50;96.50
40255;DHT22;25973;52.368;4.940;2022-07-19T04:20:37;23.50;96.50
40255;DHT22;25973;52.368;4.940;2022-07-19T04:23:03;23.60;96.50
40255;DHT22;25973;52.368;4.940;2022-07-19T04:25:29;23.60;96.50
40255;DHT22;25973;52.368;4.940;2022-07-19T04:27:54;23.60;96.50
40255;DHT22;25973;52.368;4.940;2022-07-19T04:30:20;23.60;96.60
40255;DHT22;25973;52.368;4.940;2022-07-19T04:32:45;23.60;96.70
40255;DHT22;25973;52.368;4.940;2022-07-19T04:35:11;23.70;96.50
40255;DHT22;25973;52.368;4.940;2022-07-19T04:37:36;23.70;96.30
40255;DHT22;25973;52.368;4.940;2022-07-19T04:40:03;23.70;96.40
40255;DHT22;25973;52.368;4.940;2022-07-19T04:42:29;23.70;96.40
40255;DHT22;25973;52.368;4.940;2022-07-19T04:44:54;23.80;96.30
40255;DHT22;25973;52.368;4.940;2022-07-19T04:47:20;23.80;96.20
40255;DHT22;25973;52.368;4.940;2022-07-19T04:49:45;23.90;96.20
40255;DHT22;25973;52.368;4.940;2022-07-19T04:52:11;23.90;96.40
40255;DHT22;25973;52.368;4.940;2022-07-19T04:54:36;24.00;96.40
40255;DHT22;25973;52.368;4.940;2022-07-19T04:57:02;24.00;96.20
40255;DHT22;25973;52.368;4.940;2022-07-19T04:59:27;24.10;96.30
40255;DHT22;25973;52.368;4.940;2022-07-19T05:01:53;24.10;96.20
40255;DHT22;25973;52.368;4.940;2022-07-19T05:04:19;24.20;95.90
40255;DHT22;25973;52.368;4.940;2022-07-19T05:06:44;24.30;95.90
40255;DHT22;25973;52.368;4.940;2022-07-19T05:09:10;24.40;95.90
40255;DHT22;25973;52.368;4.940;2022-07-19T05:11:39;24.50;95.70
40255;DHT22;25973;52.368;4.940;2022-07-19T05:14:04;24.70;95.60
40255;DHT22;25973;52.368;4.940;2022-07-19T05:16:30;24.90;95.60
40255;DHT22;25973;52.368;4.940;2022-07-19T05:18:55;25.10;95.20
40255;DHT22;25973;52.368;4.940;2022-07-19T05:21:21;25.20;94.90
40255;DHT22;25973;52.368;4.940;2022-07-19T05:23:46;25.40;94.80
40255;DHT22;25973;52.368;4.940;2022-07-19T05:26:12;25.60;94.50
40255;DHT22;25973;52.368;4.940;2022-07-19T05:28:37;25.80;94.10
40255;DHT22;25973;52.368;4.940;2022-07-19T05:31:04;25.90;93.90
40255;DHT22;25973;52.368;4.940;2022-07-19T05:33:30;26.00;93.60
40255;DHT22;25973;52.368;4.940;2022-07-19T05:35:55;26.00;93.90
40255;DHT22;25973;52.368;4.940;2022-07-19T05:38:21;26.10;93.70
40255;DHT22;25973;52.368;4.940;2022-07-19T05:40:47;26.20;93.50
40255;DHT22;25973;52.368;4.940;2022-07-19T05:43:13;26.30;93.50
40255;DHT22;25973;52.368;4.940;2022-07-19T05:45:39;26.50;93.50
40255;DHT22;25973;52.368;4.940;2022-07-19T05:48:05;26.50;93.00
40255;DHT22;25973;52.368;4.940;2022-07-19T05:50:33;26.70;93.10
40255;DHT22;25973;52.368;4.940;2022-07-19T05:52:58;26.70;93.30
40255;DHT22;25973;52.368;4.940;2022-07-19T05:55:24;26.70;93.00
40255;DHT22;25973;52.368;4.940;2022-07-19T05:57:49;26.70;93.10
40255;DHT22;25973;52.368;4.940;2022-07-19T06:00:15;26.70;93.00
40255;DHT22;25973;52.368;4.940;2022-07-19T06:02:40;26.70;93.30
40255;DHT22;25973;52.368;4.940;2022-07-19T06:05:07;26.80;93.20
40255;DHT22;25973;52.368;4.940;2022-07-19T06:07:33;26.80;92.90
40255;DHT22;25973;52.368;4.940;2022-07-19T06:09:59;27.00;92.70
40255;DHT22;25973;52.368;4.940;2022-07-19T06:12:24;27.10;91.80
40255;DHT22;25973;52.368;4.940;2022-07-19T06:14:50;27.20;92.00
40255;DHT22;25973;52.368;4.940;2022-07-19T06:17:15;27.20;91.60
40255;DHT22;25973;52.368;4.940;2022-07-19T06:19:41;27.30;91.70
40255;DHT22;25973;52.368;4.940;2022-07-19T06:22:06;27.40;91.60
40255;DHT22;25973;52.368;4.940;2022-07-19T06:24:32;27.50;91.70
40255;DHT22;25973;52.368;4.940;2022-07-19T06:26:57;27.80;91.60
40255;DHT22;25973;52.368;4.940;2022-07-19T06:29:23;28.10;91.20
40255;DHT22;25973;52.368;4.940;2022-07-19T06:31:48;28.30;91.10
40255;DHT22;25973;52.368;4.940;2022-07-19T06:34:14;28.60;90.90
40255;DHT22;25973;52.368;4.940;2022-07-19T06:36:39;28.90;90.60
40255;DHT22;25973;52.368;4.940;2022-07-19T06:39:05;29.20;90.30
40255;DHT22;25973;52.368;4.940;2022-07-19T06:41:30;29.50;89.80
40255;DHT22;25973;52.368;4.940;2022-07-19T06:43:56;29.90;89.70
40255;DHT22;25973;52.368;4.940;2022-07-19T06:46:22;30.20;88.60
40255;DHT22;25973;52.368;4.940;2022-07-19T06:48:47;30.60;87.70
40255;DHT22;25973;52.368;4.940;2022-07-19T06:51:13;30.80;87.60
40255;DHT22;25973;52.368;4.940;2022-07-19T06:53:38;31.10;86.30
40255;DHT22;25973;52.368;4.940;2022-07-19T06:56:04;31.50;86.20
40255;DHT22;25973;52.368;4.940;2022-07-19T06:58:30;32.00;84.60
40255;DHT22;25973;52.368;4.940;2022-07-19T07:00:56;32.40;83.20
40255;DHT22;25973;52.368;4.940;2022-07-19T07:03:22;32.80;82.10
40255;DHT22;25973;52.368;4.940;2022-07-19T07:05:47;33.00;81.10
40255;DHT22;25973;52.368;4.940;2022-07-19T07:08:13;33.30;81.00
40255;DHT22;25973;52.368;4.940;2022-07-19T07:10:39;33.70;80.10
40255;DHT22;25973;52.368;4.940;2022-07-19T07:13:05;34.00;79.50
40255;DHT22;25973;52.368;4.940;2022-07-19T07:15:31;34.50;78.40
40255;DHT22;25973;52.368;4.940;2022-07-19T07:17:57;35.10;77.40
40255;DHT22;25973;52.368;4.940;2022-07-19T07:20:22;35.50;76.50
40255;DHT22;25973;52.368;4.940;2022-07-19T07:22:48;36.00;76.00
40255;DHT22;25973;52.368;4.940;2022-07-19T07:25:14;36.40;73.90
40255;DHT22;25973;52.368;4.940;2022-07-19T07:27:40;36.60;73.90
40255;DHT22;25973;52.368;4.940;2022-07-19T07:30:06;36.90;73.10
40255;DHT22;25973;52.368;4.940;2022-07-19T07:32:32;36.90;72.20
40255;DHT22;25973;52.368;4.940;2022-07-19T07:34:57;37.20;72.00
40255;DHT22;25973;52.368;4.940;2022-07-19T07:37:23;37.30;72.20
40255;DHT22;25973;52.368;4.940;2022-07-19T07:39:49;37.30;71.10
40255;DHT22;25973;52.368;4.940;2022-07-19T07:42:14;37.30;71.50
40255;DHT22;25973;52.368;4.940;2022-07-19T07:44:41;37.50;70.70
40255;DHT22;25973;52.368;4.940;2022-07-19T07:47:12;37.50;70.10
40255;DHT22;25973;52.368;4.940;2022-07-19T07:49:39;37.40;71.40
40255;DHT22;25973;52.368;4.940;2022-07-19T07:52:05;37.60;70.60
40255;DHT22;25973;52.368;4.940;2022-07-19T07:54:32;37.90;70.20
40255;DHT22;25973;52.368;4.940;2022-07-19T07:56:58;38.10;69.60
40255;DHT22;25973;52.368;4.940;2022-07-19T07:59:23;38.20;70.10
40255;DHT22;25973;52.368;4.940;2022-07-19T08:01:49;38.50;69.10
40255;DHT22;25973;52.368;4.940;2022-07-19T08:04:14;38.80;68.40
40255;DHT22;25973;52.368;4.940;2022-07-19T08:06:40;39.00;68.40
40255;DHT22;25973;52.368;4.940;2022-07-19T08:09:06;39.00;68.00
40255;DHT22;25973;52.368;4.940;2022-07-19T08:11:32;39.20;68.00
40255;DHT22;25973;52.368;4.940;2022-07-19T08:13:58;39.40;67.50
40255;DHT22;25973;52.368;4.940;2022-07-19T08:16:23;39.30;67.50
40255;DHT22;25973;52.368;4.940;2022-07-19T08:18:49;39.30;68.00
40255;DHT22;25973;52.368;4.940;2022-07-19T08:21:17;39.40;67.40
40255;DHT22;25973;52.368;4.940;2022-07-19T08:23:43;39.60;68.00
40255;DHT22;25973;52.368;4.940;2022-07-19T08:26:11;40.00;67.60
40255;DHT22;25973;52.368;4.940;2022-07-19T08:28:37;40.10;67.00
40255;DHT22;25973;52.368;4.940;2022-07-19T08:31:02;40.10;66.20
40255;DHT22;25973;52.368;4.940;2022-07-19T08:33:28;39.80;66.10
40255;DHT22;25973;52.368;4.940;2022-07-19T08:35:54;39.80;66.30
40255;DHT22;25973;52.368;4.940;2022-07-19T08:38:19;39.80;65.90
40255;DHT22;25973;52.368;4.940;2022-07-19T08:40:45;39.00;64.70
40255;DHT22;25973;52.368;4.940;2022-07-19T08:43:12;38.70;65.80
40255;DHT22;25973;52.368;4.940;2022-07-19T08:45:40;38.80;66.10
40255;DHT22;25973;52.368;4.940;2022-07-19T08:48:07;38.90;65.70
40255;DHT22;25973;52.368;4.940;2022-07-19T08:50:34;38.80;65.90
40255;DHT22;25973;52.368;4.940;2022-07-19T08:53:00;38.90;66.60
40255;DHT22;25973;52.368;4.940;2022-07-19T08:55:27;38.90;66.90
40255;DHT22;25973;52.368;4.940;2022-07-19T08:57:52;38.90;66.60
40255;DHT22;25973;52.368;4.940;2022-07-19T09:00:30;38.90;66.90
40255;DHT22;25973;52.368;4.940;2022-07-19T09:05:27;38.50;68.20
40255;DHT22;25973;52.368;4.940;2022-07-19T09:10:31;37.90;68.90
40255;DHT22;25973;52.368;4.940;2022-07-19T09:13:17;37.20;68.90
40255;DHT22;25973;52.368;4.940;2022-07-19T09:20:37;35.30;72.40
40255;DHT22;25973;52.368;4.940;2022-07-19T09:23:03;34.90;72.50
40255;DHT22;25973;52.368;4.940;2022-07-19T09:28:03;34.40;73.80
40255;DHT22;25973;52.368;4.940;2022-07-19T09:30:49;34.20;73.70
40255;DHT22;25973;52.368;4.940;2022-07-19T09:33:20;34.20;73.60
40255;DHT22;25973;52.368;4.940;2022-07-19T09:35:49;34.10;73.70
40255;DHT22;25973;52.368;4.940;2022-07-19T09:40:46;34.20;74.10
40255;DHT22;25973;52.368;4.940;2022-07-19T09:43:11;34.20;73.80
40255;DHT22;25973;52.368;4.940;2022-07-19T09:45:37;34.30;73.80
40255;DHT22;25973;52.368;4.940;2022-07-19T09:48:03;34.40;72.90
40255;DHT22;25973;52.368;4.940;2022-07-19T09:50:29;34.30;72.80
40255;DHT22;25973;52.368;4.940;2022-07-19T09:52:58;34.30;73.50
40255;DHT22;25973;52.368;4.940;2022-07-19T09:55:26;34.30;73.90
40255;DHT22;25973;52.368;4.940;2022-07-19T09:57:53;34.40;73.80
40255;DHT22;25973;52.368;4.940;2022-07-19T10:00:21;34.40;73.80
